Time;durP1;ratioP1;P1;durP2;ratioP2;P2;SDS_P1;SDS_P2;PMS_P1;PMS_P2;Temp;Humidity;BMP_temperature;BMP_pressure;BME280_temperature;BME280_humidity;BME280_pressure;Samples;Min_cycle;Max_cycle;Signal;HPM_P1;HPM_P2
2023/10/12 00:01:57;;;;;;;8.63;2.92;;;;;;;14.62;54.57;93174.16;2068228;69;20168;-74
2023/10/12 00:04:35;;;;;;;14.77;3.60;;;;;;;14.56;54.85;93159.66;2068278;69;20161;-73
2023/10/12 00:07:16;;;;;;;13.10;2.83;;;;;;;14.63;55.28;93167.13;2067995;69;20172;-73
2023/10/12 00:09:48;;;;;;;9.02;2.90;;;;;;;14.65;54.75;93167.22;2068876;69;20237;-74
2023/10/12 00:12:21;;;;;;;12.63;3.10;;;;;;;14.46;55.91;93166.22;2071478;69;20515;-73
2023/10/12 00:14:48;;;;;;;10.35;2.88;;;;;;;14.57;54.79;93167.53;2071652;69;20143;-74
2023/10/12 00:17:16;;;;;;;8.13;2.80;;;;;;;14.66;54.04;93160.19;2071834;69;20152;-74
2023/10/12 00:19:41;;;;;;;14.00;3.28;;;;;;;14.65;53.60;93153.78;2071714;69;20176;-74
2023/10/12 00:22:11;;;;;;;10.70;2.83;;;;;;;14.68;54.25;93161.03;2068591;69;20156;-73
2023/10/12 00:24:40;;;;;;;10.25;2.92;;;;;;;14.78;53.88;93160.09;2068424;69;20171;-74
2023/10/12 00:27:10;;;;;;;16.70;3.50;;;;;;;14.30;55.89;93162.50;2068640;69;20629;-74
2023/10/12 00:29:39;;;;;;;8.70;3.30;;;;;;;14.50;55.02;93160.06;2068487;69;20156;-74
2023/10/12 00:32:06;;;;;;;13.43;3.45;;;;;;;14.56;54.97;93165.31;2071543;69;20172;-74
2023/10/12 00:34:37;;;;;;;8.95;3.28;;;;;;;14.42;55.77;93166.00;2065642;69;20150;-74
2023/10/12 00:37:04;;;;;;;12.45;2.78;;;;;;;14.23;56.70;93175.59;2068874;69;20164;-74
2023/10/12 00:39:45;;;;;;;11.82;3.10;;;;;;;14.22;56.45;93167.72;2072318;69;20179;-75
2023/10/12 00:42:17;;;;;;;10.60;3.30;;;;;;;14.23;56.21;93163.53;2066009;69;20144;-74
2023/10/12 00:44:49;;;;;;;11.10;2.70;;;;;;;14.43;55.32;93155.38;2068948;69;20162;-74
2023/10/12 00:50:06;;;;;;;9.73;2.95;;;;;;;14.34;55.17;93159.91;2072175;69;20207;-74
2023/10/12 00:52:45;;;;;;;;;;;;;;;14.44;55.54;93160.44;2072715;69;20144;-74
2023/10/12 00:55:21;;;;;;;12.57;3.20;;;;;;;14.34;55.54;93147.81;2072036;69;20048;-74
2023/10/12 00:57:50;;;;;;;10.95;3.00;;;;;;;14.28;56.14;93147.50;2072244;69;20136;-75
2023/10/12 01:00:16;;;;;;;11.85;3.05;;;;;;;14.38;55.70;93151.59;2066165;69;20612;-74
2023/10/12 01:02:44;;;;;;;10.75;3.28;;;;;;;14.16;56.41;93142.66;2068935;69;20514;-74
2023/10/12 01:05:11;;;;;;;10.50;3.22;;;;;;;14.19;56.50;93137.81;2072227;69;20182;-74
2023/10/12 01:07:38;;;;;;;8.30;3.22;;;;;;;13.68;58.38;93152.00;2071970;69;20509;-74
2023/10/12 01:10:10;;;;;;;11.50;3.53;;;;;;;13.81;58.12;93145.66;2065909;69;20168;-74
2023/10/12 01:12:37;;;;;;;7.38;3.00;;;;;;;13.87;57.07;93134.69;2068883;69;20148;-74
2023/10/12 01:15:11;;;;;;;9.27;3.25;;;;;;;13.59;59.18;93142.31;2068706;69;20527;-74
2023/10/12 01:17:41;;;;;;;10.70;3.30;;;;;;;13.79;58.39;93147.63;2069230;69;20300;-74
2023/10/12 01:20:16;;;;;;;11.20;2.90;;;;;;;13.78;56.56;93144.06;2068880;69;20145;-75
2023/10/12 01:22:42;;;;;;;10.07;2.80;;;;;;;13.81;57.70;93140.00;2068888;69;20180;-73
2023/10/12 01:25:19;;;;;;;7.82;2.80;;;;;;;13.54;58.71;93128.56;2068804;69;20540;-75
2023/10/12 01:27:46;;;;;;;13.82;3.40;;;;;;;13.48;59.09;93143.84;2068658;69;20144;-74
2023/10/12 01:30:45;;;;;;;11.32;3.30;;;;;;;13.42;58.71;93137.09;2068898;69;20638;-75
2023/10/12 01:33:06;;;;;;;6.68;2.85;;;;;;;13.50;58.83;93119.84;2071497;69;20149;-74
2023/10/12 01:35:38;;;;;;;14.02;3.08;;;;;;;13.56;58.67;93134.31;2072199;69;20124;-75
2023/10/12 01:38:05;;;;;;;9.55;3.17;;;;;;;13.53;58.68;93139.16;2072427;69;20160;-75
2023/10/12 01:43:30;;;;;;;9.52;3.25;;;;;;;13.56;59.00;93143.56;2064374;69;20164;-74
2023/10/12 01:46:01;;;;;;;9.13;2.70;;;;;;;13.56;58.64;93152.06;2068888;69;20176;-75
2023/10/12 01:48:33;;;;;;;12.27;3.03;;;;;;;13.60;57.93;93151.53;2072180;69;20156;-75
2023/10/12 01:51:14;;;;;;;9.05;2.90;;;;;;;13.40;59.04;93156.78;2068890;69;20166;-75
2023/10/12 01:53:40;;;;;;;6.95;3.00;;;;;;;13.20;60.28;93168.38;2068730;69;20546;-75
2023/10/12 01:56:10;;;;;;;10.80;2.88;;;;;;;13.28;59.67;93159.63;2069022;69;20184;-75
2023/10/12 01:58:40;;;;;;;12.52;3.40;;;;;;;13.26;59.46;93161.63;2069106;69;20287;-75
2023/10/12 02:01:15;;;;;;;9.75;3.33;;;;;;;13.32;59.73;93153.47;2068961;69;20196;-75
2023/10/12 02:03:43;;;;;;;8.55;3.13;;;;;;;13.32;60.31;93151.38;2069006;69;20488;-76
2023/10/12 02:06:16;;;;;;;9.00;3.22;;;;;;;13.30;59.66;93145.63;2068912;69;20137;-75
2023/10/12 02:08:46;;;;;;;10.75;3.42;;;;;;;13.17;60.04;93149.81;2072499;69;20144;-75
2023/10/12 02:13:47;;;;;;;9.77;2.97;;;;;;;13.15;59.83;93154.63;2068918;69;20608;-75
2023/10/12 02:16:22;;;;;;;6.85;2.80;;;;;;;13.18;60.12;93156.91;2068749;69;20152;-75
2023/10/12 02:18:48;;;;;;;7.82;3.17;;;;;;;13.20;59.89;93157.06;2068765;69;20144;-75
2023/10/12 02:21:20;;;;;;;12.80;2.78;;;;;;;13.29;59.19;93143.44;2072310;69;20148;-75
2023/10/12 02:26:38;;;;;;;15.25;3.17;;;;;;;13.40;57.51;93140.53;2072328;69;20604;-75
2023/10/12 02:34:19;;;;;;;11.35;2.88;;;;;;;13.71;56.13;93150.75;2068975;69;20216;-75
2023/10/12 02:39:42;;;;;;;14.07;2.75;;;;;;;13.78;55.44;93149.00;2068929;69;20600;-75
2023/10/12 02:47:22;;;;;;;12.93;2.70;;;;;;;13.78;55.67;93154.66;2069053;69;20140;-75
2023/10/12 02:50:01;;;;;;;9.90;3.27;;;;;;;13.84;55.75;93158.59;2072328;69;20148;-75
2023/10/12 02:52:30;;;;;;;9.95;2.67;;;;;;;13.78;56.26;93151.84;2066157;69;20143;-75
2023/10/12 02:54:56;;;;;;;14.10;3.05;;;;;;;13.78;56.88;93152.56;2072356;69;20250;-75
2023/10/12 02:57:27;;;;;;;11.27;2.78;;;;;;;13.79;56.14;93141.97;2068784;69;20175;-75
2023/10/12 03:00:00;;;;;;;6.10;2.55;;;;;;;13.89;55.23;93142.56;2072309;69;20163;-75
2023/10/12 03:02:32;;;;;;;12.35;3.20;;;;;;;13.78;56.02;93141.25;2072238;69;20187;-75
2023/10/12 03:05:00;;;;;;;11.20;3.00;;;;;;;13.77;55.88;93142.59;2072181;69;20235;-74
2023/10/12 03:07:27;;;;;;;9.65;2.90;;;;;;;13.80;56.22;93149.13;2068674;69;20140;-75
2023/10/12 03:09:57;;;;;;;7.63;2.60;;;;;;;13.81;56.17;93157.00;2065931;69;20496;-75
2023/10/12 03:12:23;;;;;;;10.20;3.20;;;;;;;13.52;57.48;93162.41;2068874;69;20587;-75
2023/10/12 03:14:53;;;;;;;9.00;3.00;;;;;;;13.64;55.98;93160.25;2072260;69;20719;-75
2023/10/12 03:17:19;;;;;;;9.27;3.00;;;;;;;13.62;56.59;93165.81;2072431;69;20141;-75
2023/10/12 03:19:57;;;;;;;13.18;3.38;;;;;;;13.56;56.95;93163.38;2068820;69;20623;-75
2023/10/12 03:22:33;;;;;;;11.57;3.25;;;;;;;13.47;57.19;93159.34;2072321;69;20132;-75
2023/10/12 03:25:19;;;;;;;8.98;2.90;;;;;;;13.67;55.86;93165.41;2066065;69;20160;-75
2023/10/12 03:27:53;;;;;;;8.25;2.70;;;;;;;13.70;55.66;93161.34;2068866;69;20180;-75
2023/10/12 03:30:34;;;;;;;8.10;2.70;;;;;;;13.61;56.48;93159.41;2068822;69;20243;-75
2023/10/12 03:33:01;;;;;;;11.90;2.72;;;;;;;13.33;57.88;93164.19;2072285;69;20148;-75
2023/10/12 03:35:33;;;;;;;10.80;3.00;;;;;;;13.47;56.99;93169.94;2072266;69;20148;-74
2023/10/12 03:38:12;;;;;;;8.90;2.85;;;;;;;13.06;58.82;93170.34;2069235;69;20190;-75
2023/10/12 03:40:52;;;;;;;9.07;2.92;;;;;;;13.29;57.73;93177.34;2072290;69;20146;-75
2023/10/12 03:43:27;;;;;;;8.80;3.20;;;;;;;13.24;58.71;93165.06;2071967;69;20144;-75
2023/10/12 03:48:26;;;;;;;9.27;2.70;;;;;;;13.26;58.04;93168.00;2071911;69;20233;-75
2023/10/12 03:50:58;;;;;;;9.00;2.83;;;;;;;13.36;57.53;93157.28;2068856;69;20167;-76
2023/10/12 03:53:30;;;;;;;13.68;3.13;;;;;;;13.05;58.78;93156.81;2071814;69;20500;-75
2023/10/12 03:56:00;;;;;;;11.93;2.97;;;;;;;12.90;59.63;93166.56;2072085;69;20138;-75
2023/10/12 03:58:27;;;;;;;9.15;2.67;;;;;;;13.08;58.75;93156.34;2071875;69;20307;-75
2023/10/12 04:01:40;;;;;;;11.48;3.13;;;;;;;13.08;58.03;93150.69;2068652;69;20164;-75
2023/10/12 04:03:42;;;;;;;8.95;2.97;;;;;;;13.16;58.74;93153.25;2069410;69;20167;-75
2023/10/12 04:06:15;;;;;;;9.38;2.92;;;;;;;13.14;58.77;93153.13;2072028;69;20155;-75
2023/10/12 04:08:53;;;;;;;8.65;2.58;;;;;;;13.28;57.74;93144.75;2071969;69;20140;-75
2023/10/12 04:16:27;;;;;;;7.63;3.08;;;;;;;12.99;58.62;93151.56;2072521;69;20143;-75
2023/10/12 04:21:33;;;;;;;8.98;2.83;;;;;;;12.93;59.00;93149.13;2072424;69;20139;-73
2023/10/12 04:27:07;;;;;;;10.20;2.73;;;;;;;12.98;58.47;93142.34;2072671;69;20511;-73
2023/10/12 04:29:31;;;;;;;10.32;2.58;;;;;;;13.36;55.92;93142.41;2073030;69;20283;-74
2023/10/12 04:32:09;;;;;;;13.90;2.90;;;;;;;13.41;56.71;93144.84;2072673;69;20619;-75
2023/10/12 04:34:46;;;;;;;11.32;2.70;;;;;;;13.44;56.34;93143.59;2069443;69;20528;-73
2023/10/12 04:37:25;;;;;;;14.05;3.05;;;;;;;13.11;57.76;93145.91;2072659;69;20159;-75
2023/10/12 04:39:56;;;;;;;9.75;2.80;;;;;;;13.18;57.82;93137.13;2072730;69;20148;-74
2023/10/12 04:42:33;;;;;;;9.20;2.92;;;;;;;13.18;56.74;93145.63;2068962;69;20592;-74
2023/10/12 04:45:22;;;;;;;10.85;2.92;;;;;;;13.22;56.61;93148.72;2069317;69;20140;-74
2023/10/12 04:47:46;;;;;;;9.75;2.67;;;;;;;13.42;55.91;93154.06;2072399;69;20520;-74
2023/10/12 04:50:27;;;;;;;10.60;3.60;;;;;;;13.34;56.54;93159.25;2072427;69;20156;-75
2023/10/12 04:53:09;;;;;;;13.23;4.10;;;;;;;13.31;56.57;93155.56;2068988;69;20163;-75
2023/10/12 04:55:35;;;;;;;9.10;3.70;;;;;;;13.14;56.98;93151.03;2069134;69;20187;-74
2023/10/12 04:58:15;;;;;;;9.85;3.20;;;;;;;13.30;55.99;93159.75;2069004;69;20132;-75
2023/10/12 05:01:30;;;;;;;9.73;3.22;;;;;;;13.17;57.09;93152.63;2069124;69;20257;-74
2023/10/12 05:03:33;;;;;;;11.38;2.55;;;;;;;13.33;55.38;93161.34;2067084;69;20208;-75
2023/10/12 05:06:09;;;;;;;16.10;6.03;;;;;;;13.16;57.24;93150.44;2072688;69;20148;-75
2023/10/12 05:08:35;;;;;;;12.95;5.55;;;;;;;13.24;56.77;93145.28;2069769;69;20156;-74
2023/10/12 05:11:06;;;;;;;12.50;4.50;;;;;;;13.23;57.17;93149.44;2072411;69;20143;-75
2023/10/12 05:13:33;;;;;;;12.20;4.10;;;;;;;13.20;56.93;93154.22;2069168;69;20614;-75
2023/10/12 05:16:04;;;;;;;10.35;3.80;;;;;;;13.04;56.95;93149.72;2072497;69;20180;-75
2023/10/12 05:18:31;;;;;;;13.15;3.90;;;;;;;12.76;57.54;93120.50;2072563;69;20168;-75
2023/10/12 05:20:57;;;;;;;15.38;4.05;;;;;;;12.86;59.19;93152.19;2072402;69;20243;-75
2023/10/12 05:23:23;;;;;;;10.43;3.50;;;;;;;12.80;59.60;93149.75;2069175;69;20148;-75
2023/10/12 05:28:27;;;;;;;13.43;3.92;;;;;;;12.66;60.07;93146.81;2072386;69;20553;-74
2023/10/12 05:30:59;;;;;;;10.95;3.67;;;;;;;12.76;59.79;93149.50;2072559;69;20137;-74
2023/10/12 05:36:09;;;;;;;8.48;3.53;;;;;;;12.77;59.94;93150.22;2072689;69;20152;-75
2023/10/12 05:38:37;;;;;;;9.13;3.42;;;;;;;12.79;59.20;93156.00;2069182;69;20228;-75
2023/10/12 05:41:08;;;;;;;12.30;3.97;;;;;;;12.77;59.43;93164.34;2069064;69;20593;-75
2023/10/12 05:43:36;;;;;;;15.60;6.05;;;;;;;12.65;60.08;93175.69;2072513;69;20227;-74
2023/10/12 05:46:15;;;;;;;13.27;5.47;;;;;;;12.71;59.89;93162.63;2072404;69;20152;-74
2023/10/12 05:48:45;;;;;;;13.55;4.70;;;;;;;12.69;59.26;93165.34;2069269;69;20152;-75
2023/10/12 05:51:21;;;;;;;14.70;5.72;;;;;;;12.63;60.17;93161.41;2069445;69;20144;-76
2023/10/12 05:53:48;;;;;;;12.90;5.15;;;;;;;12.73;59.49;93162.75;2072524;69;20145;-75
2023/10/12 05:56:17;;;;;;;10.50;4.30;;;;;;;12.81;59.68;93170.97;2072225;69;20144;-76
2023/10/12 05:58:44;;;;;;;14.05;4.97;;;;;;;12.87;59.36;93170.59;2066101;69;20575;-75
2023/10/12 06:01:10;;;;;;;19.90;4.25;;;;;;;12.95;59.39;93180.31;2072365;69;20240;-74
2023/10/12 06:03:40;;;;;;;14.18;5.68;;;;;;;12.92;58.88;93178.72;2069156;69;20187;-75
2023/10/12 06:06:10;;;;;;;18.63;8.38;;;;;;;12.87;59.76;93177.00;2072315;69;20170;-75
2023/10/12 06:08:37;;;;;;;13.90;4.38;;;;;;;12.94;59.67;93183.75;2069121;69;20141;-74
2023/10/12 06:11:04;;;;;;;12.45;4.57;;;;;;;12.96;59.66;93181.03;2068874;69;20616;-74
2023/10/12 06:13:41;;;;;;;13.10;4.70;;;;;;;13.05;60.17;93177.34;2072224;69;20154;-74
2023/10/12 06:16:20;;;;;;;16.38;5.28;;;;;;;12.79;61.11;93182.19;2072360;69;20140;-74
2023/10/12 06:18:49;;;;;;;12.13;4.70;;;;;;;13.01;60.81;93182.75;2072253;69;20151;-74
2023/10/12 06:21:19;;;;;;;9.95;3.97;;;;;;;13.11;60.75;93188.28;2066106;69;20180;-74
2023/10/12 06:23:51;;;;;;;12.55;4.78;;;;;;;12.89;60.57;93196.91;2072689;69;20144;-74
2023/10/12 06:26:29;;;;;;;15.05;5.63;;;;;;;12.99;61.31;93205.25;2069083;69;20133;-74
2023/10/12 06:28:57;;;;;;;15.05;6.63;;;;;;;13.01;60.88;93196.16;2072526;69;20686;-74
2023/10/12 06:31:31;;;;;;;11.32;5.90;;;;;;;12.94;61.72;93203.53;2072330;69;20496;-74
2023/10/12 06:33:59;;;;;;;14.57;5.95;;;;;;;13.24;59.67;93207.47;2068766;69;20140;-74
2023/10/12 06:36:40;;;;;;;17.85;7.10;;;;;;;13.23;61.22;93209.53;2072255;69;20504;-75
2023/10/12 06:44:27;;;;;;;12.30;5.22;;;;;;;13.36;60.31;93213.84;2068945;69;20140;-75
2023/10/12 06:46:53;;;;;;;11.18;5.43;;;;;;;13.37;59.46;93214.56;2072434;69;20144;-74
2023/10/12 06:49:30;;;;;;;15.90;5.60;;;;;;;13.37;61.22;93218.13;2072190;69;20144;-74
2023/10/12 06:52:01;;;;;;;13.10;5.32;;;;;;;13.54;60.54;93221.91;2072209;69;20202;-74
2023/10/12 06:59:59;;;;;;;18.90;5.50;;;;;;;13.87;60.83;93233.72;2057997;69;20201;-74
2023/10/12 07:02:29;;;;;;;10.77;4.80;;;;;;;14.07;60.33;93236.25;2058103;69;20138;-75
2023/10/12 07:05:00;;;;;;;11.63;4.63;;;;;;;14.07;59.42;93233.44;2057933;69;20153;-74
2023/10/12 07:07:40;;;;;;;13.43;5.13;;;;;;;13.97;60.65;93231.50;2057827;69;20229;-74
2023/10/12 07:12:49;;;;;;;12.88;5.45;;;;;;;14.09;59.65;93234.28;2057532;69;20628;-75
2023/10/12 07:15:23;;;;;;;12.45;4.80;;;;;;;14.27;60.46;93237.38;2057686;69;20597;-75
2023/10/12 07:17:50;;;;;;;10.25;5.03;;;;;;;14.25;59.54;93234.44;2057704;69;20141;-75
2023/10/12 07:23:05;;;;;;;11.68;5.10;;;;;;;14.24;59.99;93241.47;2057902;69;20250;-74
2023/10/12 07:25:35;;;;;;;13.10;4.93;;;;;;;14.31;58.55;93248.94;2055087;69;20220;-75
2023/10/12 07:28:18;;;;;;;13.73;5.25;;;;;;;14.53;59.96;93251.56;2057673;69;20663;-76
2023/10/12 07:31:05;;;;;;;15.70;5.63;;;;;;;14.57;60.26;93251.78;2057627;69;20141;-76
2023/10/12 07:33:32;;;;;;;14.07;4.90;;;;;;;14.79;58.82;93252.25;2060584;69;20172;-75
2023/10/12 07:36:17;;;;;;;13.38;4.72;;;;;;;14.65;58.65;93252.22;2072324;69;20199;-75
2023/10/12 07:38:45;;;;;;;11.38;4.35;;;;;;;14.92;58.45;93255.13;2072210;69;20167;-74
2023/10/12 07:41:11;;;;;;;12.40;4.80;;;;;;;14.90;58.82;93255.03;2072018;69;20152;-76
2023/10/12 07:43:38;;;;;;;15.07;4.90;;;;;;;14.87;59.54;93244.94;2072162;69;20213;-75
2023/10/12 07:46:12;;;;;;;9.40;4.10;;;;;;;14.93;59.68;93245.25;2069366;69;20140;-75
2023/10/12 07:48:45;;;;;;;12.90;4.40;;;;;;;14.80;59.49;93239.56;2069671;69;20208;-75
2023/10/12 07:51:19;;;;;;;12.43;5.50;;;;;;;14.90;59.13;93243.69;2072653;69;20167;-76
2023/10/12 07:56:40;;;;;;;11.85;3.60;;;;;;;14.95;60.27;93236.13;2067147;69;20132;-77
2023/10/12 07:59:14;;;;;;;10.52;4.28;;;;;;;14.94;61.48;93235.41;2072632;69;20124;-78
2023/10/12 08:01:39;;;;;;;13.50;5.50;;;;;;;15.37;59.78;93239.72;2072901;69;20176;-76
2023/10/12 08:04:29;;;;;;;18.65;5.65;;;;;;;15.60;59.82;93235.91;2072378;69;20240;-76
2023/10/12 08:06:59;;;;;;;17.10;5.85;;;;;;;15.96;58.46;93237.03;2069105;69;20535;-74
2023/10/12 08:11:51;;;;;;;13.80;5.40;;;;;;;16.73;56.85;93226.56;2065342;69;20153;-74
2023/10/12 08:19:42;;;;;;;20.90;6.13;;;;;;;17.58;55.28;93240.28;2070370;69;20140;-75
2023/10/12 08:22:41;;;;;;;20.00;7.10;;;;;;;17.73;54.61;93236.72;2069747;69;20210;-76
2023/10/12 08:25:04;;;;;;;8.13;4.30;;;;;;;18.18;51.46;93238.56;2068579;69;20176;-76
2023/10/12 08:27:43;;;;;;;10.05;4.07;;;;;;;17.63;52.62;93241.19;2068694;69;20163;-76
2023/10/12 08:30:13;;;;;;;9.43;3.88;;;;;;;18.04;51.32;93232.28;2068905;69;20610;-76
2023/10/12 08:32:55;;;;;;;12.00;3.80;;;;;;;18.49;50.86;93239.81;2069424;69;20152;-76
2023/10/12 08:36:23;;;;;;;11.55;3.92;;;;;;;18.99;50.55;93220.38;2069379;69;20640;-75
2023/10/12 08:38:15;;;;;;;7.82;4.15;;;;;;;19.04;50.36;93222.72;2068538;69;20206;-75
2023/10/12 08:41:18;;;;;;;15.48;4.90;;;;;;;19.43;49.70;93221.31;2068774;69;20168;-76
2023/10/12 08:43:45;;;;;;;12.88;4.97;;;;;;;19.95;48.47;93216.00;2068984;69;20168;-75
2023/10/12 08:46:12;;;;;;;9.57;4.50;;;;;;;20.53;46.66;93204.34;2069236;69;20608;-75
2023/10/12 08:48:52;;;;;;;11.15;4.60;;;;;;;20.49;46.52;93201.34;2069146;69;20144;-76
2023/10/12 08:51:29;;;;;;;12.48;4.90;;;;;;;20.99;46.35;93190.75;2069323;69;20149;-75
2023/10/12 08:54:00;;;;;;;12.80;4.40;;;;;;;20.79;45.54;93193.72;2068639;69;20172;-77
2023/10/12 08:56:32;;;;;;;10.20;4.18;;;;;;;21.16;43.75;93202.66;2068935;69;20238;-76
2023/10/12 08:59:05;;;;;;;10.15;4.03;;;;;;;21.64;43.89;93199.78;2069087;69;20222;-77
2023/10/12 09:01:35;;;;;;;9.57;3.40;;;;;;;21.32;45.07;93188.88;2069338;69;20214;-76
2023/10/12 09:04:11;;;;;;;7.68;3.47;;;;;;;22.00;44.52;93186.41;2068669;69;20148;-76
2023/10/12 09:12:13;;;;;;;12.55;3.35;;;;;;;21.82;43.49;93198.13;2055795;69;20149;-77
2023/10/12 09:14:43;;;;;;;12.40;3.22;;;;;;;22.38;42.58;93194.56;2058407;69;20158;-76
2023/10/12 09:17:20;;;;;;;11.20;3.30;;;;;;;22.41;42.72;93195.34;2058396;69;20150;-76
2023/10/12 09:19:47;;;;;;;15.63;2.97;;;;;;;22.66;41.29;93200.25;2058382;69;20150;-76
2023/10/12 09:22:12;;;;;;;7.97;2.80;;;;;;;23.47;40.62;93209.97;2058377;69;20169;-76
2023/10/12 09:24:40;;;;;;;10.60;3.00;;;;;;;23.08;39.84;93205.53;2055400;69;20165;-76
2023/10/12 09:27:12;;;;;;;10.32;2.90;;;;;;;24.53;38.23;93199.78;2057944;69;20137;-76
2023/10/12 09:29:57;;;;;;;8.10;2.80;;;;;;;24.64;37.53;93201.38;2058155;69;20152;-77
2023/10/12 09:32:26;;;;;;;11.27;3.20;;;;;;;24.91;34.69;93198.91;2057886;69;20213;-76
2023/10/12 09:37:20;;;;;;;7.45;2.58;;;;;;;24.72;36.76;93207.28;2055527;69;20126;-78
2023/10/12 09:39:46;;;;;;;9.80;2.60;;;;;;;24.30;36.69;93184.25;2055586;69;20162;-75
2023/10/12 09:42:27;;;;;;;12.13;2.90;;;;;;;25.45;35.93;93172.34;2058124;69;20146;-75
2023/10/12 09:45:01;;;;;;;8.63;2.67;;;;;;;25.34;34.70;93162.84;2055377;69;20146;-76
2023/10/12 09:47:43;;;;;;;10.38;2.60;;;;;;;25.64;35.54;93168.25;2068259;69;20141;-76
2023/10/12 09:50:15;;;;;;;9.30;2.67;;;;;;;25.90;35.17;93167.84;2068831;69;20133;-74
2023/10/12 09:52:57;;;;;;;7.72;2.80;;;;;;;25.77;34.84;93166.25;2065853;69;20137;-75
2023/10/12 09:55:32;;;;;;;15.30;4.97;;;;;;;26.45;35.17;93165.53;2068688;69;20149;-74
2023/10/12 10:01:07;;;;;;;10.15;3.10;;;;;;;27.11;33.65;93158.09;2062942;69;20458;-77
2023/10/12 10:03:38;;;;;;;8.07;2.78;;;;;;;27.21;33.89;93149.47;2069096;69;20528;-75
2023/10/12 10:06:19;;;;;;;8.38;3.47;;;;;;;28.34;31.91;93154.25;2069016;69;20220;-74
2023/10/12 10:08:45;;;;;;;8.88;2.70;;;;;;;26.97;33.74;93140.63;2069155;69;20171;-75
2023/10/12 10:11:12;;;;;;;9.48;2.53;;;;;;;27.41;33.86;93143.09;2068276;69;20163;-74
2023/10/12 10:13:49;;;;;;;11.40;2.97;;;;;;;29.12;31.17;93143.41;2068821;69;20155;-76
2023/10/12 10:16:17;;;;;;;7.70;2.70;;;;;;;30.10;29.02;93136.50;2069043;69;20576;-75
2023/10/12 10:18:56;;;;;;;6.35;2.65;;;;;;;29.08;30.15;93139.78;2068698;69;20187;-75
2023/10/12 10:21:30;;;;;;;10.13;2.50;;;;;;;28.30;32.51;93133.94;2068949;69;20191;-75
2023/10/12 10:23:57;;;;;;;9.20;2.88;;;;;;;30.78;28.73;93133.91;2067738;69;20156;-75
2023/10/12 10:26:30;;;;;;;10.02;3.10;;;;;;;31.11;28.93;93125.59;2068257;69;20248;-76
2023/10/12 10:29:05;;;;;;;7.88;2.65;;;;;;;31.99;26.74;93127.59;2068460;69;20172;-77
2023/10/12 10:31:33;;;;;;;7.72;2.35;;;;;;;30.66;28.43;93117.28;2068628;69;20161;-76
2023/10/12 10:34:06;;;;;;;8.50;2.85;;;;;;;31.01;28.89;93119.91;2068768;69;20591;-77
2023/10/12 10:36:35;;;;;;;9.27;3.35;;;;;;;32.76;28.02;93120.66;2068719;69;20206;-77
2023/10/12 10:39:28;;;;;;;7.53;3.10;;;;;;;33.45;27.48;93115.09;2069034;69;20178;-76
2023/10/12 10:42:04;;;;;;;10.80;3.40;;;;;;;34.67;25.14;93117.66;2068316;69;20177;-76
2023/10/12 10:44:36;;;;;;;7.43;3.50;;;;;;;35.38;26.27;93124.69;2068996;69;20632;-75
2023/10/12 10:47:06;;;;;;;11.18;3.10;;;;;;;35.51;25.67;93119.97;2068421;69;20204;-76
2023/10/12 10:49:32;;;;;;;8.90;2.80;;;;;;;36.29;25.44;93126.53;2068915;69;20236;-78
2023/10/12 10:52:13;;;;;;;6.63;2.58;;;;;;;35.33;25.80;93118.22;2068898;69;20220;-77
2023/10/12 10:54:55;;;;;;;10.07;2.60;;;;;;;36.60;24.98;93108.78;2069151;69;20634;-77
2023/10/12 10:57:24;;;;;;;9.05;3.20;;;;;;;37.02;24.27;93103.03;2068465;69;20172;-77
2023/10/12 10:59:51;;;;;;;9.07;2.75;;;;;;;38.36;23.44;93112.28;2067988;69;20172;-77
2023/10/12 11:02:20;;;;;;;8.38;2.33;;;;;;;39.57;20.82;93111.09;2068686;69;20129;-76
2023/10/12 11:04:46;;;;;;;6.97;2.70;;;;;;;40.35;21.31;93099.53;2068417;69;20147;-76
2023/10/12 11:07:19;;;;;;;6.00;2.45;;;;;;;38.89;21.41;93095.50;2065348;69;20154;-77
2023/10/12 11:12:17;;;;;;;;;;;;;;;39.80;22.05;93088.00;2068965;69;20160;-78
2023/10/12 11:14:52;;;;;;;6.40;2.30;;;;;;;38.83;21.79;93089.88;2069116;69;20138;-77
2023/10/12 11:17:21;;;;;;;4.32;1.95;;;;;;;38.96;21.14;93072.44;2072223;69;20235;-75
2023/10/12 11:19:49;;;;;;;5.53;2.30;;;;;;;37.07;21.29;93077.94;2072077;69;20231;-76
2023/10/12 11:22:16;;;;;;;9.45;2.25;;;;;;;39.28;20.42;93074.03;2065911;69;20140;-76
2023/10/12 11:24:45;;;;;;;6.30;2.10;;;;;;;41.19;18.31;93081.50;2072123;69;20172;-76
2023/10/12 11:27:12;;;;;;;6.25;2.38;;;;;;;41.70;19.11;93067.13;2068169;69;20209;-76
2023/10/12 11:29:50;;;;;;;7.10;2.30;;;;;;;42.46;19.49;93069.75;2071918;69;20144;-75
2023/10/12 11:32:16;;;;;;;5.68;2.25;;;;;;;44.09;17.37;93068.47;2072058;69;20231;-75
2023/10/12 11:34:52;;;;;;;6.53;2.15;;;;;;;46.08;17.94;93063.63;2071831;69;20156;-75
2023/10/12 11:37:19;;;;;;;7.97;2.13;;;;;;;40.41;18.73;93052.06;2072196;69;20202;-77
2023/10/12 11:39:46;;;;;;;6.07;2.10;;;;;;;42.36;19.55;93058.47;2072082;69;20187;-77
2023/10/12 11:42:13;;;;;;;6.13;2.25;;;;;;;47.23;17.17;93068.06;2068745;69;20144;-78
2023/10/12 11:44:42;;;;;;;7.15;2.88;;;;;;;44.41;17.84;93062.78;2072057;69;20145;-77
2023/10/12 11:47:10;;;;;;;7.03;2.45;;;;;;;47.15;15.83;93062.75;2066031;69;20140;-77
2023/10/12 11:49:55;;;;;;;5.00;2.47;;;;;;;50.01;16.65;93049.00;2072179;69;20155;-77
2023/10/12 11:52:34;;;;;;;9.10;2.40;;;;;;;48.25;15.14;93039.47;2072147;69;20155;-77
2023/10/12 11:55:00;;;;;;;7.82;2.40;;;;;;;46.81;15.44;93036.88;2072021;69;20140;-77
2023/10/12 11:57:27;;;;;;;6.88;2.28;;;;;;;48.42;14.98;93032.19;2071910;69;20206;-77
2023/10/12 11:59:53;;;;;;;4.70;2.00;;;;;;;49.33;14.29;93021.75;2071728;69;20136;-76
2023/10/12 12:02:19;;;;;;;6.57;2.28;;;;;;;50.47;13.33;93020.28;2072011;69;20147;-78
2023/10/12 12:04:45;;;;;;;6.50;2.28;;;;;;;50.44;13.71;93015.34;2071999;69;20179;-78
2023/10/12 12:07:13;;;;;;;6.93;2.40;;;;;;;50.39;15.82;93018.00;2069007;69;20184;-78
2023/10/12 12:09:39;;;;;;;8.80;2.50;;;;;;;45.32;16.39;92990.06;2068980;69;20152;-77
2023/10/12 12:12:12;;;;;;;8.60;3.08;;;;;;;45.74;17.37;92986.44;2071646;69;20250;-78
2023/10/12 12:14:49;;;;;;;20.15;7.38;;;;;;;49.85;15.24;92994.25;2071176;69;20235;-77
2023/10/12 12:17:15;;;;;;;4.75;2.08;;;;;;;50.71;14.40;92992.75;2071356;69;20152;-77
2023/10/12 12:19:41;;;;;;;6.10;2.53;;;;;;;50.19;13.92;93001.84;2071332;69;20258;-78
2023/10/12 12:22:13;;;;;;;6.00;2.83;;;;;;;46.74;15.50;92984.56;2071624;69;20148;-78
2023/10/12 12:24:41;;;;;;;10.90;3.97;;;;;;;50.41;14.52;92984.88;2068836;69;20189;-79
2023/10/12 12:27:32;;;;;;;5.90;2.00;;;;;;;51.55;14.13;92986.59;2071898;69;20140;-79
2023/10/12 12:29:54;;;;;;;4.43;1.90;;;;;;;50.24;13.59;92982.63;2068860;69;20153;-78
2023/10/12 12:32:20;;;;;;;11.63;3.55;;;;;;;50.71;12.69;92981.47;2072635;69;20658;-79
2023/10/12 12:34:51;;;;;;;7.03;2.20;;;;;;;48.67;14.09;92983.88;2069108;69;20223;-78
2023/10/12 12:37:18;;;;;;;6.53;2.20;;;;;;;52.20;12.78;92985.03;2069274;69;20156;-78
2023/10/12 12:39:53;;;;;;;6.03;2.35;;;;;;;52.31;12.74;92980.16;2069268;69;20156;-79
2023/10/12 12:42:19;;;;;;;16.38;2.33;;;;;;;53.40;12.69;92976.25;2072503;69;20226;-77
2023/10/12 12:44:45;;;;;;;4.65;1.80;;;;;;;53.58;11.74;92983.44;2069259;69;20167;-77
2023/10/12 12:47:11;;;;;;;6.63;1.95;;;;;;;53.19;11.92;92979.88;2068797;69;20156;-79
2023/10/12 12:49:37;;;;;;;5.40;1.92;;;;;;;52.83;12.32;92970.59;2072553;69;20143;-79
2023/10/12 12:52:03;;;;;;;6.32;1.90;;;;;;;47.87;13.94;92950.69;2069125;69;20213;-80
2023/10/12 12:54:31;;;;;;;6.45;2.40;;;;;;;49.83;14.25;92953.25;2072544;69;20541;-79
2023/10/12 12:56:58;;;;;;;5.60;2.22;;;;;;;49.99;13.40;92947.41;2069241;69;20164;-78
2023/10/12 12:59:26;;;;;;;4.80;1.77;;;;;;;47.71;14.98;92943.75;2072693;69;20144;-78
2023/10/12 13:01:53;;;;;;;4.78;2.10;;;;;;;49.28;15.07;92939.97;2072650;69;20156;-79
2023/10/12 13:04:19;;;;;;;6.38;2.47;;;;;;;49.64;15.04;92953.41;2072372;69;20148;-78
2023/10/12 13:06:44;;;;;;;6.72;2.60;;;;;;;50.56;14.53;92942.41;2072487;69;20194;-79
2023/10/12 13:09:29;;;;;;;5.00;2.30;;;;;;;51.39;13.55;92942.38;2072608;69;20618;-78
2023/10/12 13:11:56;;;;;;;7.20;2.20;;;;;;;48.85;14.74;92937.59;2072445;69;20148;-78
2023/10/12 13:14:22;;;;;;;7.60;2.40;;;;;;;49.26;14.39;92934.19;2072582;69;20227;-77